createdAt,value
2022-11-09T00:03:58.282Z,56.39
2022-11-09T00:09:05.793Z,56.00
2022-11-09T00:14:13.976Z,55.74
2022-11-09T00:19:17.210Z,55.86
2022-11-09T00:24:18.952Z,55.92
2022-11-09T00:29:20.759Z,55.70
2022-11-09T00:34:25.313Z,56.00
2022-11-09T00:39:27.116Z,56.07
2022-11-09T00:44:32.886Z,55.85
2022-11-09T00:49:36.081Z,55.83
2022-11-09T00:54:37.894Z,55.66
2022-11-09T00:59:39.739Z,56.01
2022-11-09T01:04:42.891Z,56.42
2022-11-09T01:09:44.715Z,57.06
2022-11-09T01:14:46.536Z,57.25
2022-11-09T01:19:49.785Z,57.65
2022-11-09T01:24:51.581Z,58.30
2022-11-09T01:29:53.395Z,58.61
2022-11-09T01:34:56.575Z,59.02
2022-11-09T01:39:58.358Z,58.34
2022-11-09T01:45:33.430Z,58.46
2022-11-09T01:50:40.838Z,58.68
2022-11-09T01:55:44.155Z,58.34
2022-11-09T02:00:47.671Z,58.41
2022-11-09T02:05:50.979Z,58.08
2022-11-09T02:10:57.252Z,58.00
2022-11-09T02:15:59.096Z,58.32
2022-11-09T02:21:02.224Z,58.48
2022-11-09T02:26:07.016Z,58.44
2022-11-09T02:31:11.268Z,58.44
2022-11-09T02:36:16.724Z,58.77
2022-11-09T02:41:18.794Z,57.80
2022-11-09T02:46:23.244Z,58.22
2022-11-09T02:51:28.252Z,58.91
2022-11-09T02:56:30.680Z,58.66
2022-11-09T03:01:32.886Z,59.16
2022-11-09T03:06:37.279Z,59.01
2022-11-09T03:11:45.480Z,59.84
2022-11-09T03:16:50.911Z,60.34
2022-11-09T03:21:55.181Z,60.07
2022-11-09T03:26:59.142Z,59.98
2022-11-09T03:32:02.150Z,61.25
2022-11-09T03:37:05.525Z,62.32
2022-11-09T03:42:07.783Z,61.73
2022-11-09T03:47:11.399Z,60.59
2022-11-09T03:52:14.655Z,60.94
2022-11-09T03:57:16.577Z,61.59
2022-11-09T04:02:18.572Z,61.41
2022-11-09T04:07:21.894Z,61.32
2022-11-09T04:12:23.944Z,61.64
2022-11-09T04:17:25.801Z,61.65
2022-11-09T04:22:28.978Z,62.20
2022-11-09T04:27:30.936Z,62.58
2022-11-09T04:32:32.895Z,62.91
2022-11-09T04:37:36.184Z,62.99
2022-11-09T04:42:38.110Z,63.07
2022-11-09T04:47:40.085Z,63.58
2022-11-09T04:52:43.303Z,64.31
2022-11-09T04:57:45.241Z,65.27
2022-11-09T05:02:47.086Z,66.18
2022-11-09T05:07:50.404Z,66.07
2022-11-09T05:12:57.552Z,66.47
2022-11-09T05:17:59.435Z,67.17
2022-11-09T05:23:21.294Z,68.12
2022-11-09T05:28:23.278Z,68.66
2022-11-09T05:33:25.078Z,69.10
2022-11-09T05:38:28.232Z,70.04
2022-11-09T05:43:30.036Z,70.37
2022-11-09T05:48:31.930Z,71.26
2022-11-09T05:53:35.160Z,71.55
2022-11-09T05:58:38.710Z,72.26
2022-11-09T06:03:42.075Z,72.64
2022-11-09T06:08:45.563Z,73.63
2022-11-09T06:13:47.360Z,74.79
2022-11-09T06:18:49.247Z,76.25
2022-11-09T06:23:52.372Z,76.24
2022-11-09T06:28:54.154Z,77.35
2022-11-09T06:33:56.004Z,77.60
2022-11-09T06:38:59.245Z,77.63
2022-11-09T06:44:00.956Z,77.97
2022-11-09T06:49:02.791Z,77.92
2022-11-09T06:54:06.074Z,78.29
2022-11-09T06:59:09.096Z,77.29
2022-11-09T07:04:12.565Z,75.75
2022-11-09T07:09:15.809Z,74.60
2022-11-09T07:14:17.675Z,73.19
2022-11-09T07:19:19.568Z,73.04
2022-11-09T07:24:22.865Z,72.29
2022-11-09T07:29:25.016Z,71.61
2022-11-09T07:34:26.902Z,71.46
2022-11-09T07:39:30.201Z,72.28
2022-11-09T07:44:32.070Z,72.80
2022-11-09T07:49:33.962Z,72.20
2022-11-09T07:54:37.910Z,70.12
2022-11-09T07:59:40.151Z,70.94
2022-11-09T08:04:41.984Z,69.92
2022-11-09T08:09:45.435Z,66.80
2022-11-09T08:14:47.208Z,65.97
2022-11-09T08:19:49.189Z,63.63
2022-11-09T08:24:52.332Z,62.30
2022-11-09T08:29:54.209Z,60.48
2022-11-09T08:34:56.125Z,63.04
2022-11-09T08:39:59.360Z,60.68
2022-11-09T08:45:01.244Z,61.24
2022-11-09T08:50:06.247Z,63.16
2022-11-09T08:55:09.664Z,62.97
2022-11-09T09:00:12.646Z,62.95
2022-11-09T09:05:14.424Z,64.05
2022-11-09T09:10:17.943Z,64.89
2022-11-09T09:15:19.693Z,65.31
2022-11-09T09:20:21.433Z,65.32
2022-11-09T09:25:24.762Z,65.17
2022-11-09T09:30:26.688Z,64.01
2022-11-09T09:35:28.644Z,65.03
2022-11-09T09:40:33.545Z,66.00
2022-11-09T09:45:35.427Z,67.05
2022-11-09T09:50:40.173Z,69.42
2022-11-09T09:55:44.720Z,72.27
2022-11-09T10:00:46.467Z,75.03
2022-11-09T10:05:53.018Z,76.62
2022-11-09T10:11:03.101Z,75.46
2022-11-09T10:16:07.851Z,75.10
2022-11-09T10:21:18.492Z,77.54
2022-11-09T10:26:23.817Z,77.76
2022-11-09T10:31:25.514Z,79.38
2022-11-09T10:36:29.866Z,79.56
2022-11-09T10:41:34.818Z,79.75
2022-11-09T10:47:02.098Z,79.88
2022-11-09T10:52:33.152Z,80.81
2022-11-09T10:57:57.882Z,80.26
2022-11-09T11:03:18.773Z,80.77
2022-11-09T11:08:40.073Z,78.46
2022-11-09T11:14:15.912Z,76.11
2022-11-09T11:19:40.409Z,76.54
2022-11-09T11:25:01.716Z,78.59
2022-11-09T11:30:28.449Z,78.76
2022-11-09T11:35:50.234Z,78.07
2022-11-09T11:41:21.497Z,77.41
2022-11-09T11:46:45.863Z,76.17
2022-11-09T11:52:07.963Z,57.23
2022-11-09T11:57:32.435Z,37.33
2022-11-09T12:03:26.408Z,34.81
2022-11-09T12:08:57.736Z,38.19
2022-11-09T12:14:25.094Z,45.86
2022-11-09T12:19:52.723Z,51.62
2022-11-09T12:25:16.437Z,54.75
2022-11-09T12:30:45.601Z,58.16
2022-11-09T12:36:09.462Z,62.47
2022-11-09T12:41:33.472Z,64.86
2022-11-09T12:46:57.241Z,68.28
2022-11-09T12:52:20.954Z,69.37
2022-11-09T12:57:44.371Z,69.81
2022-11-09T13:03:05.500Z,69.83
2022-11-09T13:08:29.131Z,67.18
2022-11-09T13:13:49.688Z,66.89
2022-11-09T13:19:10.172Z,66.40
2022-11-09T13:24:53.106Z,66.67
2022-11-09T13:30:50.154Z,69.04
2022-11-09T13:36:19.669Z,69.71
2022-11-09T13:41:42.174Z,70.17
2022-11-09T13:47:02.320Z,66.83
2022-11-09T13:52:48.544Z,66.69
2022-11-09T13:58:13.456Z,66.28
2022-11-09T14:03:33.915Z,68.17
2022-11-09T14:08:54.390Z,67.21
2022-11-09T14:14:34.836Z,68.57
2022-11-09T14:20:11.887Z,66.57
2022-11-09T14:25:34.386Z,67.08
2022-11-09T14:30:55.997Z,70.13
2022-11-09T14:36:16.454Z,72.17
2022-11-09T14:41:36.592Z,71.88
2022-11-09T14:46:58.386Z,75.28
2022-11-09T14:52:21.403Z,72.83
2022-11-09T14:57:41.720Z,77.39
2022-11-09T15:03:25.263Z,77.03
2022-11-09T15:08:49.854Z,77.02
2022-11-09T15:14:14.793Z,77.56
2022-11-09T15:19:39.385Z,82.66
2022-11-09T15:24:59.855Z,81.65
2022-11-09T15:30:31.018Z,84.49
2022-11-09T15:35:53.842Z,84.20
2022-11-09T15:41:16.137Z,84.14
2022-11-09T15:46:39.775Z,84.36
2022-11-09T15:52:01.437Z,85.91
2022-11-09T15:57:21.803Z,85.94
2022-11-09T16:02:42.944Z,85.82
2022-11-09T16:08:07.501Z,84.80
2022-11-09T16:13:28.867Z,84.06
2022-11-09T16:18:49.148Z,81.78
2022-11-09T16:24:10.835Z,79.94
2022-11-09T16:29:31.692Z,78.45
2022-11-09T16:35:15.299Z,76.57
2022-11-09T16:40:34.553Z,75.97
2022-11-09T16:45:54.743Z,74.63
2022-11-09T16:51:15.087Z,73.79
2022-11-09T16:56:36.494Z,75.42
2022-11-09T17:01:57.983Z,73.60
2022-11-09T17:07:18.180Z,72.70
2022-11-09T17:12:39.853Z,71.98
2022-11-09T17:18:00.352Z,72.39
2022-11-09T17:23:20.755Z,73.60
2022-11-09T17:28:43.388Z,75.59
2022-11-09T17:34:04.034Z,76.53
2022-11-09T17:39:24.438Z,75.67
2022-11-09T17:44:46.284Z,73.74
2022-11-09T17:50:07.961Z,73.69
2022-11-09T17:55:28.517Z,73.42
2022-11-09T18:00:50.478Z,73.82
2022-11-09T18:06:12.119Z,74.85
2022-11-09T18:11:33.616Z,75.20
2022-11-09T18:16:55.312Z,75.70
2022-11-09T18:22:15.837Z,74.55
2022-11-09T18:27:36.493Z,75.16
2022-11-09T18:32:58.391Z,74.49
2022-11-09T18:38:20.229Z,74.01
2022-11-09T18:43:41.125Z,74.27
2022-11-09T18:49:03.001Z,73.39
2022-11-09T18:54:23.725Z,73.56
2022-11-09T18:59:44.179Z,73.49
2022-11-09T19:05:06.858Z,72.55
2022-11-09T19:10:27.319Z,72.00
2022-11-09T19:15:47.752Z,73.29
2022-11-09T19:21:21.374Z,71.63
2022-11-09T19:26:42.077Z,71.14
2022-11-09T19:32:02.188Z,71.66
2022-11-09T19:37:24.049Z,70.89
2022-11-09T19:42:44.285Z,70.97
2022-11-09T19:48:05.101Z,70.66
2022-11-09T19:53:28.399Z,70.03
2022-11-09T19:58:49.340Z,69.20
2022-11-09T20:04:10.620Z,69.13
2022-11-09T20:09:32.969Z,69.56
2022-11-09T20:14:53.765Z,70.08
2022-11-09T20:20:17.380Z,70.38
2022-11-09T20:25:39.385Z,70.81
2022-11-09T20:30:59.899Z,70.09
2022-11-09T20:36:20.099Z,70.39
2022-11-09T20:41:42.025Z,70.17
2022-11-09T20:47:02.787Z,69.91
2022-11-09T20:52:23.565Z,69.28
2022-11-09T20:57:45.193Z,68.59
2022-11-09T21:03:06.467Z,67.80
2022-11-09T21:08:27.341Z,67.31
2022-11-09T21:13:50.072Z,67.61
2022-11-09T21:19:11.012Z,67.36
2022-11-09T21:24:50.925Z,67.17
2022-11-09T21:30:13.183Z,67.37
2022-11-09T21:35:33.601Z,66.79
2022-11-09T21:40:53.946Z,66.24
2022-11-09T21:46:15.900Z,66.02
2022-11-09T21:51:37.060Z,65.79
2022-11-09T21:56:57.455Z,66.04
2022-11-09T22:02:19.202Z,65.96
2022-11-09T22:07:39.709Z,66.12
2022-11-09T22:13:19.055Z,66.58
2022-11-09T22:18:59.854Z,67.12
2022-11-09T22:24:20.724Z,66.47
2022-11-09T22:29:41.331Z,66.62
2022-11-09T22:35:03.437Z,66.63
2022-11-09T22:40:23.741Z,66.21
2022-11-09T22:45:43.889Z,66.28
2022-11-09T22:51:05.582Z,65.56
2022-11-09T22:56:26.097Z,66.13
2022-11-09T23:01:46.460Z,66.72
2022-11-09T23:07:08.231Z,66.82
2022-11-09T23:12:28.784Z,66.78
2022-11-09T23:18:24.606Z,67.38
2022-11-09T23:23:46.109Z,67.66
2022-11-09T23:29:06.467Z,68.44
2022-11-09T23:34:26.897Z,69.07
2022-11-09T23:39:48.526Z,69.48
2022-11-09T23:45:09.599Z,69.79
2022-11-09T23:50:30.507Z,69.72
2022-11-09T23:55:52.354Z,70.03
